Time;durP1;ratioP1;P1;durP2;ratioP2;P2;SDS_P1;SDS_P2;PMS_P1;PMS_P2;Temp;Humidity;BMP_temperature;BMP_pressure;BME280_temperature;BME280_humidity;BME280_pressure;Samples;Min_cycle;Max_cycle;Signal;HPM_P1;HPM_P2
2022/04/16 00:02:11;;;;;;;52.50;35.78;;;14.70;99.90;;;;;;5033684;28;20029;-64
2022/04/16 00:04:37;;;;;;;383.15;356.25;;;14.60;99.90;;;;;;5033530;28;20018;-61
2022/04/16 00:07:03;;;;;;;410.50;381.50;;;14.50;99.90;;;;;;5033408;28;20112;-56
2022/04/16 00:09:29;;;;;;;27.50;21.48;;;14.50;99.90;;;;;;5031585;28;20474;-57
2022/04/16 00:11:55;;;;;;;24.17;17.45;;;14.60;99.90;;;;;;5033414;28;20032;-63
2022/04/16 00:14:21;;;;;;;270.40;250.15;;;14.60;99.90;;;;;;5033181;28;20029;-66
2022/04/16 00:16:47;;;;;;;16.65;14.77;;;14.60;99.90;;;;;;5033328;28;20025;-58
2022/04/16 00:19:14;;;;;;;9.98;8.02;;;14.70;99.90;;;;;;5047804;28;20477;-62
2022/04/16 00:21:40;;;;;;;9.35;7.15;;;14.60;99.90;;;;;;5033006;28;20120;-56
2022/04/16 00:24:07;;;;;;;8.13;5.93;;;14.50;99.90;;;;;;5033279;28;20100;-62
2022/04/16 00:26:38;;;;;;;8.40;5.03;;;14.60;99.90;;;;;;5033546;28;20033;-56
2022/04/16 00:29:05;;;;;;;7.33;4.97;;;14.50;99.90;;;;;;5031923;28;20048;-59
2022/04/16 00:31:31;;;;;;;5.55;4.30;;;14.60;99.90;;;;;;5033245;28;20025;-62
2022/04/16 00:33:57;;;;;;;5.32;3.95;;;14.60;99.90;;;;;;5033053;28;20153;-61
2022/04/16 00:36:22;;;;;;;8.40;4.85;;;14.60;99.90;;;;;;5033015;28;20112;-64
2022/04/16 00:38:48;;;;;;;10.75;4.20;;;14.60;99.90;;;;;;5033038;28;20033;-62
2022/04/16 00:41:14;;;;;;;5.53;3.83;;;14.60;99.90;;;;;;5035026;28;20469;-60
2022/04/16 00:43:40;;;;;;;6.93;4.15;;;14.60;99.90;;;;;;5036964;28;20033;-63
2022/04/16 00:46:06;;;;;;;8.70;4.03;;;14.50;99.90;;;;;;5037037;28;20057;-63
2022/04/16 00:48:32;;;;;;;8.90;4.25;;;14.50;99.90;;;;;;5037069;28;20033;-58
2022/04/16 00:50:59;;;;;;;7.32;3.78;;;14.40;99.90;;;;;;5015836;28;20041;-58
2022/04/16 00:53:28;;;;;;;6.40;4.35;;;14.30;99.90;;;;;;5027079;28;20040;-63
2022/04/16 00:55:54;;;;;;;5.55;4.10;;;14.30;99.90;;;;;;5036389;28;20029;-63
2022/04/16 00:58:19;;;;;;;5.70;4.10;;;14.30;99.90;;;;;;5034858;28;20378;-58
2022/04/16 01:00:45;;;;;;;6.30;4.10;;;14.20;99.90;;;;;;5036900;28;20037;-58
2022/04/16 01:03:11;;;;;;;5.72;3.55;;;14.20;99.90;;;;;;5034837;28;20056;-62
2022/04/16 01:05:37;;;;;;;7.47;4.10;;;14.30;99.90;;;;;;5036852;28;20112;-59
2022/04/16 01:08:04;;;;;;;9.50;4.65;;;14.30;99.90;;;;;;5034747;28;20125;-61
2022/04/16 01:10:32;;;;;;;5.53;3.83;;;14.30;99.90;;;;;;5036686;28;20104;-63
2022/04/16 01:13:00;;;;;;;8.98;4.43;;;14.30;99.90;;;;;;5036699;28;20036;-61
2022/04/16 01:15:29;;;;;;;5.90;4.30;;;14.30;99.90;;;;;;5036603;28;20064;-63
2022/04/16 01:17:56;;;;;;;10.65;5.65;;;14.10;99.90;;;;;;5036328;28;20049;-58
2022/04/16 01:20:22;;;;;;;11.18;6.85;;;14.10;99.90;;;;;;5036412;28;20036;-59
2022/04/16 01:22:50;;;;;;;7.40;5.00;;;14.10;99.90;;;;;;5034819;28;20418;-61
2022/04/16 01:25:16;;;;;;;8.65;5.70;;;14.10;99.90;;;;;;5036314;28;20060;-60
2022/04/16 01:27:48;;;;;;;6.65;4.90;;;14.10;99.90;;;;;;5036422;28;20484;-61
2022/04/16 01:30:16;;;;;;;9.23;5.25;;;14.10;99.90;;;;;;5036577;28;20037;-61
2022/04/16 01:32:42;;;;;;;8.43;5.72;;;14.20;99.90;;;;;;5036226;28;20029;-58
2022/04/16 01:35:09;;;;;;;6.88;5.20;;;14.20;99.90;;;;;;5036271;28;20032;-60
2022/04/16 01:37:37;;;;;;;10.25;5.72;;;14.20;99.90;;;;;;5034305;28;20053;-54
2022/04/16 01:40:05;;;;;;;9.02;5.78;;;14.20;99.90;;;;;;5034746;28;20026;-63
2022/04/16 01:42:32;;;;;;;9.50;5.13;;;14.20;99.90;;;;;;5036250;28;20112;-62
2022/04/16 01:45:00;;;;;;;7.85;4.85;;;14.20;99.90;;;;;;5036139;28;20025;-60
2022/04/16 01:47:27;;;;;;;67.40;44.88;;;14.20;99.90;;;;;;5035247;28;20025;-59
2022/04/16 01:49:54;;;;;;;27.17;18.85;;;14.20;99.90;;;;;;5035677;28;20504;-61
2022/04/16 01:52:21;;;;;;;9.52;6.50;;;14.20;99.90;;;;;;5035215;28;20074;-59
2022/04/16 01:54:47;;;;;;;6.38;5.35;;;14.10;99.90;;;;;;5036243;28;20458;-66
2022/04/16 01:57:13;;;;;;;9.02;5.70;;;14.10;99.90;;;;;;5035809;28;20036;-63
2022/04/16 01:59:39;;;;;;;8.82;5.90;;;14.10;99.90;;;;;;5033841;28;20563;-57
2022/04/16 02:02:05;;;;;;;8.10;5.40;;;14.10;99.90;;;;;;5035633;28;20025;-60
2022/04/16 02:04:32;;;;;;;8.48;5.90;;;14.10;99.90;;;;;;5035495;28;20025;-65
2022/04/16 02:06:58;;;;;;;16.48;5.88;;;14.10;99.90;;;;;;5035570;28;20036;-57
2022/04/16 02:09:24;;;;;;;7.07;4.93;;;14.10;99.90;;;;;;5035686;28;20033;-61
2022/04/16 02:11:49;;;;;;;13.60;6.38;;;14.00;99.90;;;;;;5035707;28;20025;-55
2022/04/16 02:14:15;;;;;;;9.45;5.53;;;13.90;99.90;;;;;;5035434;28;20071;-60
2022/04/16 02:16:41;;;;;;;8.63;5.03;;;13.90;99.90;;;;;;5035175;28;20108;-66
2022/04/16 02:19:07;;;;;;;10.07;5.53;;;13.80;99.90;;;;;;5035600;28;20038;-63
2022/04/16 02:21:32;;;;;;;8.82;5.13;;;13.80;99.90;;;;;;5033340;28;20041;-65
2022/04/16 02:23:59;;;;;;;7.93;5.50;;;13.70;99.90;;;;;;5035196;28;20025;-56
2022/04/16 02:26:26;;;;;;;9.70;5.50;;;13.60;99.90;;;;;;5035161;28;20539;-55
2022/04/16 02:28:52;;;;;;;7.32;4.90;;;13.60;99.90;;;;;;5034878;28;20469;-59
2022/04/16 02:31:17;;;;;;;6.35;4.95;;;13.40;99.90;;;;;;5034990;28;20092;-55
2022/04/16 02:33:43;;;;;;;8.75;5.60;;;13.40;99.90;;;;;;5033108;28;20129;-58
2022/04/16 02:36:11;;;;;;;8.40;5.40;;;13.50;99.90;;;;;;5033633;28;20033;-61
2022/04/16 02:38:40;;;;;;;11.50;5.70;;;13.40;99.90;;;;;;5034577;28;20025;-55
2022/04/16 02:41:06;;;;;;;6.38;4.72;;;13.40;99.90;;;;;;5035045;28;20045;-63
2022/04/16 02:43:31;;;;;;;7.53;5.57;;;13.50;99.90;;;;;;5035040;28;20029;-64
2022/04/16 02:48:41;;;;;;;8.85;5.35;;;13.40;99.90;;;;;;5034974;28;20071;-67
2022/04/16 02:51:08;;;;;;;7.97;5.25;;;13.30;99.90;;;;;;5034731;28;20030;-67
2022/04/16 02:53:34;;;;;;;11.68;5.78;;;13.30;99.90;;;;;;5034748;28;20034;-54
2022/04/16 02:56:00;;;;;;;10.13;5.63;;;13.30;99.90;;;;;;5034518;28;20025;-66
2022/04/16 02:58:26;;;;;;;7.00;6.10;;;13.30;99.90;;;;;;5034692;28;20060;-64
2022/04/16 03:00:54;;;;;;;8.20;6.50;;;13.30;99.90;;;;;;5034906;28;20033;-63
2022/04/16 03:03:22;;;;;;;7.78;6.50;;;13.30;99.90;;;;;;5034637;28;20033;-62
2022/04/16 03:05:48;;;;;;;8.20;6.93;;;13.40;99.90;;;;;;5034480;28;20121;-63
2022/04/16 03:08:15;;;;;;;13.48;6.72;;;13.40;99.90;;;;;;5034244;28;20030;-57
2022/04/16 03:10:41;;;;;;;9.18;6.47;;;13.40;99.90;;;;;;5034504;28;20049;-67
2022/04/16 03:13:07;;;;;;;9.85;7.13;;;13.40;99.90;;;;;;5034650;28;20108;-58
2022/04/16 03:18:19;;;;;;;9.07;6.47;;;13.40;99.90;;;;;;5033992;28;20048;-61
2022/04/16 03:20:45;;;;;;;9.52;6.40;;;13.40;99.90;;;;;;5033984;28;20400;-63
2022/04/16 03:23:11;;;;;;;9.38;6.35;;;13.30;99.90;;;;;;5034214;28;20083;-66
2022/04/16 03:25:41;;;;;;;8.65;6.03;;;13.30;99.90;;;;;;5034236;28;20025;-64
2022/04/16 03:28:07;;;;;;;8.95;6.40;;;13.10;99.90;;;;;;5034044;28;20030;-66
2022/04/16 03:30:33;;;;;;;6.07;5.03;;;13.00;99.90;;;;;;5032185;28;20044;-65
2022/04/16 03:32:59;;;;;;;10.70;6.53;;;12.90;99.90;;;;;;5032064;28;20124;-61
2022/04/16 03:35:25;;;;;;;9.52;6.32;;;12.90;99.90;;;;;;5034192;28;20039;-60
2022/04/16 03:37:51;;;;;;;9.23;6.60;;;12.90;99.90;;;;;;5033714;28;20025;-59
2022/04/16 03:40:19;;;;;;;11.68;6.95;;;12.90;99.90;;;;;;5031818;28;20033;-59
2022/04/16 03:42:50;;;;;;;9.05;6.53;;;13.00;99.90;;;;;;5033874;28;20484;-61
2022/04/16 03:45:25;;;;;;;9.17;6.77;;;13.10;99.90;;;;;;5033930;28;20032;-68
2022/04/16 03:47:53;;;;;;;10.38;7.00;;;13.10;99.90;;;;;;5033754;28;20033;-62
2022/04/16 03:50:20;;;;;;;10.13;6.80;;;13.20;99.90;;;;;;5033690;28;20480;-64
2022/04/16 03:52:48;;;;;;;10.25;7.50;;;13.20;99.90;;;;;;5033582;28;20068;-62
2022/04/16 04:00:47;;;;;;;8.88;6.47;;;13.30;99.90;;;;;;5031441;28;20115;-62
2022/04/16 04:03:14;;;;;;;12.48;7.43;;;13.30;99.90;;;;;;4998412;28;20477;-60
2022/04/16 04:05:41;;;;;;;10.55;6.47;;;13.30;99.90;;;;;;5031009;28;20034;-62
2022/04/16 04:08:08;;;;;;;9.73;7.55;;;13.20;99.90;;;;;;5031034;28;20389;-57
2022/04/16 04:10:34;;;;;;;11.98;7.43;;;13.20;99.90;;;;;;5031263;28;20041;-58
2022/04/16 04:13:00;;;;;;;9.00;7.30;;;13.20;99.90;;;;;;5031410;28;20084;-63
2022/04/16 04:15:32;;;;;;;9.45;8.38;;;13.20;99.90;;;;;;5030795;28;20501;-63
2022/04/16 04:17:59;;;;;;;9.55;7.88;;;13.20;99.90;;;;;;5031009;28;20050;-65
2022/04/16 04:20:26;;;;;;;10.68;7.72;;;13.20;99.90;;;;;;4981711;28;20039;-69
2022/04/16 04:22:52;;;;;;;10.25;8.30;;;13.20;99.90;;;;;;5031048;28;20090;-60
2022/04/16 04:25:17;;;;;;;12.68;7.40;;;13.10;99.90;;;;;;5031387;28;20088;-59
2022/04/16 04:27:43;;;;;;;11.68;8.23;;;13.00;99.90;;;;;;5033334;28;20033;-65
2022/04/16 04:30:10;;;;;;;14.38;9.40;;;13.10;99.90;;;;;;5032910;28;20038;-63
2022/04/16 04:32:36;;;;;;;19.27;11.75;;;13.10;99.90;;;;;;5029478;28;20495;-63
2022/04/16 04:35:02;;;;;;;19.50;8.82;;;13.10;99.90;;;;;;5018121;28;20034;-64
2022/04/16 04:37:28;;;;;;;13.45;9.10;;;13.00;99.90;;;;;;5014288;28;20111;-62
2022/04/16 04:39:54;;;;;;;12.90;8.13;;;13.00;99.90;;;;;;5032829;28;20045;-57
2022/04/16 04:42:27;;;;;;;14.15;9.65;;;13.10;99.90;;;;;;5033076;28;20036;-62
2022/04/16 04:44:53;;;;;;;13.05;8.77;;;13.10;99.90;;;;;;5027595;28;20033;-62
2022/04/16 04:47:19;;;;;;;11.77;7.95;;;13.10;99.90;;;;;;5047734;28;20045;-62
2022/04/16 04:49:45;;;;;;;19.27;10.77;;;13.10;99.90;;;;;;5047788;28;20551;-62
2022/04/16 04:52:19;;;;;;;17.77;9.45;;;13.00;99.90;;;;;;5021344;28;20029;-56
2022/04/16 04:54:44;;;;;;;15.13;9.55;;;13.00;99.90;;;;;;5016029;28;20033;-63
2022/04/16 04:57:10;;;;;;;17.55;8.85;;;13.10;99.90;;;;;;5022928;28;20112;-65
2022/04/16 04:59:36;;;;;;;19.27;10.80;;;13.10;99.90;;;;;;5030778;28;20030;-63
2022/04/16 05:02:02;;;;;;;17.08;11.05;;;13.20;99.90;;;;;;5032820;28;20035;-63
2022/04/16 05:04:27;;;;;;;14.07;10.07;;;13.30;99.90;;;;;;5014580;28;20037;-61
2022/04/16 05:06:53;;;;;;;17.05;9.55;;;13.20;99.90;;;;;;5031493;28;20484;-57
2022/04/16 05:09:19;;;;;;;11.02;8.90;;;13.30;99.90;;;;;;5031486;28;20064;-63
2022/04/16 05:11:45;;;;;;;12.02;9.02;;;13.30;99.90;;;;;;5028822;28;20531;-66
2022/04/16 05:14:11;;;;;;;12.88;8.82;;;13.20;99.90;;;;;;5031688;28;20083;-63
2022/04/16 05:16:36;;;;;;;11.63;8.77;;;13.20;99.90;;;;;;5032566;28;20109;-63
2022/04/16 05:19:02;;;;;;;10.45;8.55;;;13.30;99.90;;;;;;5029619;28;20022;-68
2022/04/16 05:21:28;;;;;;;12.32;9.35;;;13.40;99.90;;;;;;5028389;28;20079;-65
2022/04/16 05:23:54;;;;;;;11.48;8.85;;;13.30;99.90;;;;;;5021606;28;20386;-62
2022/04/16 05:26:19;;;;;;;11.32;9.63;;;13.50;99.90;;;;;;5031671;28;20064;-56
2022/04/16 05:28:45;;;;;;;15.50;10.32;;;13.50;99.90;;;;;;5032603;28;20128;-61
2022/04/16 05:31:11;;;;;;;22.85;13.77;;;13.50;99.90;;;;;;5035402;28;20505;-60
2022/04/16 05:36:21;;;;;;;34.10;20.38;;;13.70;99.90;;;;;;5035994;28;20511;-64
2022/04/16 05:38:47;;;;;;;73.88;41.55;;;13.70;99.90;;;;;;5029925;28;20030;-64
2022/04/16 05:41:13;;;;;;;14.70;10.35;;;13.60;99.90;;;;;;5029587;28;20044;-60
2022/04/16 05:43:39;;;;;;;15.18;8.38;;;13.60;99.90;;;;;;5028040;28;20025;-66
2022/04/16 05:46:04;;;;;;;12.63;8.15;;;13.60;99.90;;;;;;5033050;28;20465;-64
2022/04/16 05:48:30;;;;;;;9.73;6.95;;;13.50;99.90;;;;;;5033177;28;20103;-59
2022/04/16 05:50:57;;;;;;;12.70;9.23;;;13.50;99.90;;;;;;5022009;28;20021;-59
2022/04/16 05:53:24;;;;;;;17.55;12.27;;;13.40;99.90;;;;;;5015995;28;20120;-59
2022/04/16 05:55:53;;;;;;;18.67;13.20;;;13.60;99.90;;;;;;5015975;28;20026;-62
2022/04/16 05:58:19;;;;;;;15.75;11.50;;;13.70;99.90;;;;;;5030660;28;20394;-60
2022/04/16 06:00:45;;;;;;;9.05;6.25;;;13.70;99.90;;;;;;5016001;28;20033;-64
2022/04/16 06:03:12;;;;;;;14.55;10.02;;;13.60;99.90;;;;;;5015989;28;20034;-58
2022/04/16 06:05:38;;;;;;;10.88;6.50;;;13.70;99.90;;;;;;5026272;28;20030;-60
2022/04/16 06:08:04;;;;;;;9.75;7.13;;;13.70;99.90;;;;;;5015590;28;20072;-63
2022/04/16 06:10:30;;;;;;;10.68;7.72;;;13.60;99.90;;;;;;5015722;28;20030;-65
2022/04/16 06:12:55;;;;;;;974.08;900.53;;;13.50;99.90;;;;;;5013666;28;20045;-58
2022/04/16 06:15:22;;;;;;;469.42;426.67;;;13.40;99.90;;;;;;5015632;28;20026;-63
2022/04/16 06:17:48;;;;;;;667.20;618.40;;;13.30;99.90;;;;;;5015506;28;20096;-64
2022/04/16 06:20:14;;;;;;;9.63;7.60;;;13.20;99.90;;;;;;5015771;28;20116;-54
2022/04/16 06:22:40;;;;;;;714.03;651.40;;;13.30;99.90;;;;;;5032160;28;20052;-57
2022/04/16 06:25:08;;;;;;;20.73;10.93;;;13.20;99.90;;;;;;5034605;28;20029;-53
2022/04/16 06:27:38;;;;;;;9.13;6.00;;;13.30;99.90;;;;;;5035207;28;20091;-53
2022/04/16 06:30:09;;;;;;;9.45;7.38;;;13.30;99.90;;;;;;5032652;28;20076;-54
2022/04/16 06:32:35;;;;;;;7.82;5.78;;;13.40;99.90;;;;;;5034389;28;20022;-53
2022/04/16 06:35:05;;;;;;;13.20;7.88;;;13.40;99.90;;;;;;5033859;28;20079;-53
2022/04/16 06:37:34;;;;;;;10.32;7.57;;;13.40;99.90;;;;;;5033575;28;20465;-53
2022/04/16 06:40:00;;;;;;;8.88;6.47;;;13.40;99.90;;;;;;5034323;28;20021;-54
2022/04/16 06:42:26;;;;;;;20.48;10.52;;;13.30;99.90;;;;;;5034671;28;20509;-53
2022/04/16 06:44:52;;;;;;;12.25;9.10;;;13.40;99.90;;;;;;5049252;28;20038;-54
2022/04/16 06:47:18;;;;;;;15.52;10.13;;;13.50;99.90;;;;;;5034975;28;20032;-53
2022/04/16 06:49:43;;;;;;;12.02;7.82;;;13.50;99.90;;;;;;5034769;28;20362;-53
2022/04/16 06:52:09;;;;;;;18.77;11.35;;;13.40;99.90;;;;;;5035132;28;20025;-54
2022/04/16 06:54:36;;;;;;;20.73;11.60;;;13.40;99.90;;;;;;5032584;28;20511;-53
2022/04/16 06:57:02;;;;;;;15.35;10.82;;;13.50;99.90;;;;;;5034710;28;20512;-54
2022/04/16 06:59:28;;;;;;;11.38;7.90;;;13.50;99.90;;;;;;5032579;28;20033;-54
2022/04/16 07:01:54;;;;;;;12.80;9.20;;;13.40;99.90;;;;;;5034597;28;20434;-54
2022/04/16 07:04:20;;;;;;;7.88;6.22;;;13.50;99.90;;;;;;5031940;28;20033;-53
2022/04/16 07:06:45;;;;;;;10.48;7.45;;;13.40;99.90;;;;;;5031257;28;20048;-53
2022/04/16 07:09:11;;;;;;;8.45;7.55;;;13.50;99.90;;;;;;5032427;28;20044;-53
2022/04/16 07:11:37;;;;;;;13.75;8.82;;;13.50;99.90;;;;;;5034528;28;20021;-53
2022/04/16 07:14:03;;;;;;;10.82;8.68;;;13.50;99.90;;;;;;5032514;28;20082;-54
2022/04/16 07:16:28;;;;;;;14.77;7.95;;;13.60;99.90;;;;;;5034315;28;20037;-54
2022/04/16 07:18:54;;;;;;;7.45;6.32;;;13.40;99.90;;;;;;5033541;28;20056;-53
2022/04/16 07:21:20;;;;;;;9.43;6.85;;;13.40;99.90;;;;;;5031401;28;20049;-53
2022/04/16 07:23:45;;;;;;;9.77;6.22;;;13.30;99.90;;;;;;5032439;28;20045;-53
2022/04/16 07:26:11;;;;;;;10.63;7.47;;;13.20;99.90;;;;;;5032712;28;20104;-53
2022/04/16 07:28:37;;;;;;;7.63;5.20;;;13.20;99.90;;;;;;5030468;28;20033;-54
2022/04/16 07:31:03;;;;;;;9.23;6.25;;;13.20;99.90;;;;;;5032761;28;20108;-54
2022/04/16 07:33:29;;;;;;;5.40;3.90;;;13.10;99.90;;;;;;5032571;28;20121;-53
2022/04/16 07:35:55;;;;;;;7.05;5.55;;;13.10;99.90;;;;;;5032511;28;20387;-53
2022/04/16 07:38:21;;;;;;;6.82;5.47;;;13.10;99.90;;;;;;5032406;28;20025;-53
2022/04/16 07:40:47;;;;;;;8.77;6.03;;;13.10;99.90;;;;;;5032892;28;20057;-54
2022/04/16 07:43:15;;;;;;;8.18;5.95;;;13.20;99.90;;;;;;5032544;28;20065;-54
2022/04/16 07:45:41;;;;;;;7.63;6.28;;;13.10;99.90;;;;;;5032287;28;20025;-54
2022/04/16 07:48:08;;;;;;;6.93;6.18;;;13.30;99.90;;;;;;5032770;28;20079;-54
2022/04/16 07:50:33;;;;;;;8.52;5.82;;;13.20;99.90;;;;;;5031762;28;20030;-53
2022/04/16 07:52:59;;;;;;;6.70;5.68;;;13.10;99.90;;;;;;5032306;28;20489;-53
2022/04/16 07:55:28;;;;;;;6.95;5.32;;;13.00;99.90;;;;;;5032346;28;20029;-53
2022/04/16 07:57:54;;;;;;;9.38;7.60;;;13.00;99.90;;;;;;5032499;28;20029;-53
2022/04/16 08:00:20;;;;;;;11.13;6.18;;;13.10;99.90;;;;;;5030723;28;20045;-53
2022/04/16 08:02:46;;;;;;;9.23;6.93;;;13.10;99.90;;;;;;5032468;28;20046;-53
2022/04/16 08:05:12;;;;;;;10.52;7.18;;;13.00;99.90;;;;;;5032142;28;20029;-53
2022/04/16 08:07:37;;;;;;;10.82;7.97;;;12.90;99.90;;;;;;5045310;28;20432;-54
2022/04/16 08:10:04;;;;;;;8.18;7.03;;;13.00;99.90;;;;;;5031973;28;20087;-54
2022/04/16 08:12:29;;;;;;;12.23;7.63;;;13.10;99.90;;;;;;5029903;28;20076;-54
2022/04/16 08:14:55;;;;;;;8.85;6.75;;;13.00;99.90;;;;;;5030117;28;20065;-53
2022/04/16 08:17:21;;;;;;;12.05;7.05;;;13.00;99.90;;;;;;5032042;28;20107;-53
2022/04/16 08:19:47;;;;;;;8.40;7.22;;;13.00;99.90;;;;;;5030735;28;20432;-54
2022/04/16 08:22:21;;;;;;;9.90;7.05;;;13.00;99.90;;;;;;5029946;28;20060;-53
2022/04/16 08:27:26;;;;;;;8.30;7.15;;;12.90;99.90;;;;;;5030757;28;20028;-53
2022/04/16 08:29:51;;;;;;;17.80;11.57;;;13.00;99.90;;;;;;5031838;28;20033;-53
2022/04/16 08:32:17;;;;;;;9.68;8.18;;;13.10;99.90;;;;;;5030648;28;20083;-54
2022/04/16 08:34:43;;;;;;;14.48;8.40;;;13.10;99.90;;;;;;5027516;28;20040;-54
2022/04/16 08:37:09;;;;;;;12.80;8.60;;;13.10;99.90;;;;;;5031489;28;20508;-54
2022/04/16 08:39:35;;;;;;;15.75;9.57;;;13.30;99.90;;;;;;5044409;28;20037;-54
2022/04/16 08:42:01;;;;;;;11.40;7.95;;;13.40;99.90;;;;;;5030983;28;20065;-53
2022/04/16 08:44:27;;;;;;;7.50;4.82;;;13.50;99.90;;;;;;5031376;28;20430;-54
2022/04/16 08:46:56;;;;;;;9.27;7.85;;;13.40;99.90;;;;;;5031332;28;20022;-54
2022/04/16 08:49:25;;;;;;;10.23;6.53;;;13.70;99.90;;;;;;5031140;28;20095;-54
2022/04/16 08:51:51;;;;;;;7.68;4.90;;;13.60;99.90;;;;;;5030871;28;20444;-58
2022/04/16 08:54:17;;;;;;;12.57;7.88;;;13.60;99.90;;;;;;5030934;28;20026;-55
2022/04/16 08:56:43;;;;;;;8.77;5.93;;;13.70;99.90;;;;;;5030209;28;20083;-54
2022/04/16 08:59:09;;;;;;;10.63;8.10;;;13.80;99.90;;;;;;5029853;28;20029;-53
2022/04/16 09:01:35;;;;;;;7.43;6.18;;;14.10;99.90;;;;;;5029748;28;20036;-53
2022/04/16 09:04:01;;;;;;;9.00;7.22;;;14.20;99.90;;;;;;5032843;28;20021;-53
2022/04/16 09:06:27;;;;;;;9.90;7.45;;;14.10;99.90;;;;;;5033352;28;20111;-53
2022/04/16 09:08:54;;;;;;;9.57;7.80;;;14.30;99.90;;;;;;5032208;28;20124;-53
2022/04/16 09:11:26;;;;;;;9.15;7.97;;;;;;;;;;5031508;28;20048;-53
2022/04/16 09:13:53;;;;;;;11.50;7.78;;;15.60;99.90;;;;;;5032146;28;20026;-53
2022/04/16 09:16:20;;;;;;;11.57;6.63;;;16.20;99.90;;;;;;5032888;28;20159;-53
2022/04/16 09:18:46;;;;;;;8.82;7.03;;;;;;;;;;5032215;28;20061;-53
2022/04/16 09:21:16;;;;;;;9.93;7.60;;;;;;;;;;5032425;28;20052;-53
2022/04/16 09:23:50;;;;;;;10.63;6.03;;;;;;;;;;5034010;28;20175;-53
2022/04/16 09:26:28;;;;;;;8.20;6.88;;;;;;;;;;5033347;28;20109;-52
2022/04/16 09:28:54;;;;;;;10.82;7.20;;;;;;;;;;5031493;28;20072;-53
2022/04/16 09:31:27;;;;;;;9.48;6.60;;;;;;;;;;5031802;28;20029;-54
2022/04/16 09:33:53;;;;;;;10.48;6.10;;;;;;;;;;5032498;28;20369;-54
2022/04/16 09:36:26;;;;;;;17.98;8.40;;;;;;;;;;5033748;28;20421;-53
2022/04/16 09:39:02;;;;;;;22.00;9.68;;;;;;;;;;5032112;28;20112;-53
2022/04/16 09:41:32;;;;;;;7.85;5.68;;;;;;;;;;5030827;28;20107;-54
2022/04/16 09:43:59;;;;;;;8.00;5.97;;;;;;;;;;5033680;28;20128;-53
2022/04/16 09:46:27;;;;;;;16.92;7.43;;;;;;;;;;5033563;28;20044;-53
2022/04/16 09:48:57;;;;;;;11.52;6.03;;;;;;;;;;5033649;28;20029;-53
2022/04/16 09:51:24;;;;;;;12.20;7.57;;;;;;;;;;5032332;28;20029;-53
2022/04/16 09:53:52;;;;;;;91.45;30.85;;;;;;;;;;5033219;28;20387;-53
2022/04/16 09:56:19;;;;;;;44.67;17.60;;;;;;;;;;5033509;28;20030;-53
2022/04/16 09:58:47;;;;;;;11.90;7.20;;;;;;;;;;5033515;28;20025;-53
2022/04/16 10:01:14;;;;;;;6.50;5.05;;;;;;;;;;5047584;28;20175;-53
2022/04/16 10:03:40;;;;;;;6.18;4.97;;;;;;;;;;5033237;28;20032;-54
2022/04/16 10:06:07;;;;;;;11.73;8.77;;;;;;;;;;5033157;28;20025;-53
2022/04/16 10:08:35;;;;;;;7.85;5.75;;;;;;;;;;5031730;28;20361;-53
2022/04/16 10:11:03;;;;;;;5.82;5.07;;;17.80;99.90;;;;;;5033199;28;20018;-53
2022/04/16 10:13:36;;;;;;;8.80;5.20;;;17.80;99.90;;;;;;5030951;28;20045;-52
2022/04/16 10:16:10;;;;;;;5.50;4.15;;;17.50;99.90;;;;;;5032805;28;20087;-53
2022/04/16 10:18:35;;;;;;;6.43;4.43;;;18.00;99.90;;;;;;5032508;28;20053;-53
2022/04/16 10:21:03;;;;;;;11.18;5.05;;;18.60;99.90;;;;;;5030051;28;20095;-53
2022/04/16 10:23:30;;;;;;;8.30;5.07;;;;;;;;;;5030487;28;20029;-54
2022/04/16 10:26:09;;;;;;;6.28;4.88;;;18.80;99.90;;;;;;5032669;28;20109;-55
2022/04/16 10:28:40;;;;;;;6.88;4.93;;;18.70;99.90;;;;;;5032580;28;20124;-53
2022/04/16 10:31:18;;;;;;;6.70;4.75;;;18.60;99.90;;;;;;5031175;28;20128;-53
2022/04/16 10:33:53;;;;;;;6.53;3.63;;;;;;;;;;5032020;28;20029;-52
2022/04/16 10:36:24;;;;;;;4.55;2.17;;;;;;;;;;5031474;28;20377;-51
2022/04/16 10:38:52;;;;;;;7.25;5.03;;;;;;;;;;5031399;28;20120;-58
2022/04/16 10:41:21;;;;;;;7.07;5.93;;;;;;;;;;5032147;28;20033;-59
2022/04/16 10:44:02;;;;;;;7.57;5.05;;;;;;;;;;5032005;28;20022;-59
2022/04/16 10:46:47;;;;;;;5.70;3.30;;;;;;;;;;5030692;28;20032;-57
2022/04/16 10:49:13;;;;;;;5.10;3.65;;;19.50;99.90;;;;;;5031879;28;20037;-58
2022/04/16 10:51:40;;;;;;;5.25;2.90;;;19.40;99.90;;;;;;5031806;28;20025;-55
2022/04/16 10:54:24;;;;;;;4.03;3.33;;;19.10;99.90;;;;;;5031963;28;20033;-56
2022/04/16 10:56:54;;;;;;;2.95;1.92;;;19.10;99.90;;;;;;5031715;28;20030;-55
2022/04/16 10:59:37;;;;;;;2.90;2.20;;;18.40;99.90;;;;;;5031743;28;20032;-55
2022/04/16 11:02:21;;;;;;;5.80;2.72;;;18.60;99.90;;;;;;5031498;28;20025;-54
2022/04/16 11:05:08;;;;;;;3.78;2.83;;;18.70;99.90;;;;;;5030861;28;20148;-59
2022/04/16 11:07:39;;;;;;;4.60;2.90;;;18.70;99.90;;;;;;5029101;28;20033;-57
2022/04/16 11:10:07;;;;;;;3.05;2.60;;;18.80;99.90;;;;;;5062089;28;20049;-51
2022/04/16 11:12:36;;;;;;;4.57;2.60;;;18.90;99.90;;;;;;5027420;28;20132;-54
2022/04/16 11:15:02;;;;;;;5.50;2.22;;;19.00;99.90;;;;;;5030991;28;20037;-55
2022/04/16 11:17:27;;;;;;;2.65;2.03;;;19.40;99.90;;;;;;5031465;28;20050;-52
2022/04/16 11:20:05;;;;;;;2.00;1.58;;;19.80;99.90;;;;;;5031362;28;20083;-54
2022/04/16 11:22:32;;;;;;;2.38;1.92;;;19.90;99.30;;;;;;5029820;28;20040;-50
2022/04/16 11:24:59;;;;;;;3.33;2.03;;;;;;;;;;5030112;28;20033;-50
2022/04/16 11:36:04;;;;;;;3.65;2.88;;;18.60;97.40;;;;;;5030894;28;20083;-55
2022/04/16 11:38:35;;;;;;;3.58;2.67;;;18.40;98.30;;;;;;5028137;28;20021;-49
2022/04/16 11:41:04;;;;;;;4.95;2.47;;;18.30;98.30;;;;;;5011569;28;20041;-49
2022/04/16 11:43:31;;;;;;;18.80;8.63;;;18.70;97.50;;;;;;5045492;28;20405;-52
2022/04/16 11:46:03;;;;;;;7.45;4.05;;;19.10;98.40;;;;;;5028047;28;20750;-54
2022/04/16 11:48:31;;;;;;;7.95;4.15;;;18.70;97.20;;;;;;5031183;28;20030;-52
2022/04/16 11:50:57;;;;;;;12.88;6.03;;;18.60;98.10;;;;;;5045785;28;20033;-54
2022/04/16 11:53:23;;;;;;;15.80;6.00;;;18.10;98.30;;;;;;5028803;28;20087;-50
2022/04/16 11:55:52;;;;;;;3.05;2.15;;;17.70;98.70;;;;;;5030681;28;20032;-51
2022/04/16 11:58:25;;;;;;;6.00;3.35;;;17.50;98.90;;;;;;5045592;28;20091;-57
2022/04/16 12:00:55;;;;;;;4.15;2.80;;;17.40;99.60;;;;;;5030923;28;20052;-55
2022/04/16 12:03:41;;;;;;;30.88;12.25;;;17.30;99.40;;;;;;5029314;28;20481;-55
2022/04/16 12:06:11;;;;;;;5.60;3.53;;;18.40;99.90;;;;;;5024867;28;20396;-54
2022/04/16 12:08:39;;;;;;;12.73;5.75;;;18.50;99.40;;;;;;5026044;28;20045;-55
2022/04/16 12:11:06;;;;;;;4.07;2.17;;;18.50;98.70;;;;;;5028173;28;20045;-58
2022/04/16 12:13:39;;;;;;;7.40;3.03;;;18.30;99.00;;;;;;5030324;28;20044;-57
2022/04/16 12:16:10;;;;;;;3.75;2.30;;;17.90;98.90;;;;;;5030382;28;20042;-55
2022/04/16 12:18:41;;;;;;;3.95;2.05;;;17.70;99.30;;;;;;5028378;28;20045;-54
2022/04/16 12:21:09;;;;;;;16.17;7.50;;;17.40;99.00;;;;;;5031110;28;20037;-58
2022/04/16 12:23:40;;;;;;;15.73;6.70;;;17.50;99.30;;;;;;5031839;28;20120;-55
2022/04/16 12:26:08;;;;;;;4.10;2.80;;;17.70;99.40;;;;;;5031952;28;20033;-54
2022/04/16 12:28:43;;;;;;;7.32;3.65;;;17.70;99.60;;;;;;5031807;28;20043;-57
2022/04/16 12:31:10;;;;;;;5.10;2.75;;;17.80;99.70;;;;;;5030209;28;20112;-58
2022/04/16 12:33:36;;;;;;;8.00;3.97;;;17.90;99.30;;;;;;5032412;28;20072;-57
2022/04/16 12:36:02;;;;;;;7.55;3.28;;;18.40;99.90;;;;;;5032317;28;20021;-57
2022/04/16 12:38:28;;;;;;;35.50;12.32;;;18.20;98.60;;;;;;5036306;28;20056;-56
2022/04/16 12:41:08;;;;;;;2.85;2.28;;;18.50;99.20;;;;;;5036316;28;20032;-54
2022/04/16 12:43:34;;;;;;;8.45;3.70;;;18.90;98.50;;;;;;5036064;28;20029;-58
2022/04/16 12:46:00;;;;;;;3.95;2.50;;;19.10;99.00;;;;;;5033830;28;20094;-56
2022/04/16 12:48:25;;;;;;;3.55;2.45;;;19.70;96.90;;;;;;5036057;28;20025;-54
2022/04/16 12:50:51;;;;;;;17.10;9.00;;;20.00;97.00;;;;;;5032600;28;20092;-56
2022/04/16 12:53:17;;;;;;;5.65;3.22;;;20.20;96.30;;;;;;5035787;28;20033;-57
2022/04/16 12:55:43;;;;;;;5.07;3.22;;;20.20;96.30;;;;;;5035935;28;20389;-55
2022/04/16 12:58:09;;;;;;;4.68;2.45;;;19.90;97.20;;;;;;5035881;28;20096;-58
2022/04/16 13:00:35;;;;;;;2.72;1.85;;;19.70;95.90;;;;;;5035800;28;20116;-54
2022/04/16 13:03:00;;;;;;;3.53;2.38;;;20.00;99.90;;;;;;5035664;28;20029;-54
2022/04/16 13:05:29;;;;;;;2.63;1.58;;;;;;;;;;5036015;28;20065;-55
2022/04/16 13:07:58;;;;;;;3.45;2.35;;;20.60;95.20;;;;;;5035626;28;20021;-57
2022/04/16 13:10:24;;;;;;;5.53;3.10;;;20.80;95.60;;;;;;5034600;28;20515;-55
2022/04/16 13:12:49;;;;;;;17.75;7.50;;;20.30;94.50;;;;;;5035417;28;20116;-55
2022/04/16 13:15:15;;;;;;;12.02;5.35;;;19.90;95.80;;;;;;5035472;28;20083;-55
2022/04/16 13:17:41;;;;;;;7.18;2.70;;;;;;;;;;5031249;28;20049;-55